Weather at Leonardo da Vinci–Fiumicino Airport

Public forecast

Using degrees Celsius for public forecast. Weather courtesy of forecast.io.

Current aviation weather report (METAR) for Leonardo da Vinci–Fiumicino Airport

Retrieved 2021/01/23 13:20 UTC (0 seconds ago):

LIRF 231320Z 26019KT CAVOK 14/06 Q1001 NOSIG

Aviation forecast (TAF) for Leonardo da Vinci–Fiumicino Airport

Retrieved 2021/01/23 12:00 UTC (1 hour ago):

TAF LIRF 231100Z 2312/2418 26025G35KT 9999 SCT030 TEMPO 2312/2322 RA TEMPO 2322/2408 SHRA TEMPO 2408/2418 RA BECMG 2409/2411 30015G25KT